Time;durP1;ratioP1;P1;durP2;ratioP2;P2;SDS_P1;SDS_P2;PMS_P1;PMS_P2;Temp;Humidity;BMP_temperature;BMP_pressure;BME280_temperature;BME280_humidity;BME280_pressure;Samples;Min_cycle;Max_cycle;Signal;HPM_P1;HPM_P2
2022/05/11 00:01:42;;;;;;;3.45;3.25;;;;;;;;;;5117544;28;20203;-57
2022/05/11 00:04:10;;;;;;;3.50;3.30;;;;;;;;;;5116852;28;20586;-57
2022/05/11 00:06:38;;;;;;;3.45;3.22;;;;;;;;;;5117528;28;20594;-57
2022/05/11 00:09:08;;;;;;;3.50;3.30;;;;;;;;;;5120100;28;20203;-57
2022/05/11 00:11:35;;;;;;;3.50;3.30;;;;;;;;;;5120660;28;20229;-57
2022/05/11 00:14:03;;;;;;;3.50;3.20;;;;;;;;;;5121725;28;20199;-57
2022/05/11 00:16:30;;;;;;;3.28;3.08;;;;;;;;;;5121171;28;20226;-57
2022/05/11 00:18:58;;;;;;;3.58;3.38;;;;;;;;;;5120424;28;20243;-57
2022/05/11 00:21:25;;;;;;;3.42;3.22;;;;;;;;;;5121378;28;20207;-57
2022/05/11 00:23:53;;;;;;;3.58;3.38;;;;;;;;;;5120173;28;20285;-57
2022/05/11 00:26:22;;;;;;;3.47;3.25;;;;;;;;;;5120313;28;20199;-57
2022/05/11 00:28:50;;;;;;;3.53;3.22;;;;;;;;;;5121172;28;20507;-57
2022/05/11 00:31:17;;;;;;;3.42;3.22;;;;;;;;;;5121298;28;20210;-57
2022/05/11 00:33:44;;;;;;;3.40;3.20;;;;;;;;;;5120443;28;20597;-57
2022/05/11 00:36:13;;;;;;;3.50;3.30;;;;;;;;;;5121016;28;20210;-57
2022/05/11 00:38:41;;;;;;;3.53;3.33;;;;;;;;;;5120749;28;20199;-57
2022/05/11 00:41:09;;;;;;;3.50;3.30;;;;;;;;;;5121016;28;20245;-57
2022/05/11 00:43:38;;;;;;;3.28;3.08;;;;;;;;;;5119594;28;20238;-57
2022/05/11 00:46:09;;;;;;;3.60;3.40;;;;;;;;;;5121645;28;20264;-57
2022/05/11 00:51:23;;;;;;;3.13;2.92;;;;;;;;;;5119905;28;20244;-57
2022/05/11 00:53:52;;;;;;;3.30;3.10;;;;;;;;;;5120040;28;20203;-56
2022/05/11 00:56:19;;;;;;;3.50;3.30;;;;;;;;;;5120348;28;20214;-57
2022/05/11 00:58:50;;;;;;;3.53;3.33;;;;;;;;;;5120553;28;20480;-56
2022/05/11 01:01:18;;;;;;;3.50;3.30;;;;;;;;;;5120058;28;20601;-57
2022/05/11 01:03:48;;;;;;;3.15;2.95;;;;;;;;;;5119866;28;20203;-57
2022/05/11 01:06:15;;;;;;;3.85;3.55;;;;;;;;;;5121099;28;20225;-57
2022/05/11 01:08:43;;;;;;;3.65;3.40;;;;;;;;;;5120401;28;20231;-56
2022/05/11 01:11:11;;;;;;;3.40;3.20;;;;;;;;;;5119316;28;20218;-57
2022/05/11 01:13:40;;;;;;;3.63;3.42;;;;;;;;;;5118935;28;20203;-56
2022/05/11 01:16:09;;;;;;;3.50;3.30;;;;;;;;;;5120177;28;20195;-56
2022/05/11 01:18:38;;;;;;;3.40;3.20;;;;;;;;;;5120033;28;20199;-56
2022/05/11 01:21:07;;;;;;;3.40;3.20;;;;;;;;;;5120044;28;20218;-57
2022/05/11 01:23:45;;;;;;;3.10;2.90;;;;;;;;;;5120110;28;20230;-56
2022/05/11 01:26:16;;;;;;;3.60;3.40;;;;;;;;;;5118723;28;20202;-57
2022/05/11 01:28:45;;;;;;;3.40;3.20;;;;;;;;;;5120343;28;20234;-57
2022/05/11 01:31:13;;;;;;;3.50;3.30;;;;;;;;;;5120370;28;20582;-57
2022/05/11 01:33:42;;;;;;;3.50;3.30;;;;;;;;;;5119311;28;20206;-56
2022/05/11 01:36:16;;;;;;;3.50;3.30;;;;;;;;;;5119148;28;20198;-57
2022/05/11 01:38:44;;;;;;;3.67;3.47;;;;;;;;;;5119861;28;20206;-57
2022/05/11 01:41:15;;;;;;;3.47;3.28;;;;;;;;;;5121071;28;20213;-57
2022/05/11 01:43:43;;;;;;;3.40;3.20;;;;;;;;;;5119007;28;20227;-57
2022/05/11 01:46:10;;;;;;;3.20;3.00;;;;;;;;;;5119749;28;20230;-57
2022/05/11 01:48:38;;;;;;;3.47;3.28;;;;;;;;;;5120351;28;20417;-57
2022/05/11 01:51:05;;;;;;;3.55;3.35;;;;;;;;;;5119993;28;20479;-56
2022/05/11 01:53:32;;;;;;;3.60;3.40;;;;;;;;;;5118124;28;20616;-56
2022/05/11 01:56:00;;;;;;;3.35;3.15;;;;;;;;;;5119135;28;20203;-56
2022/05/11 01:58:29;;;;;;;3.38;3.17;;;;;;;;;;5120094;28;20198;-57
2022/05/11 02:00:56;;;;;;;3.35;3.15;;;;;;;;;;5119945;28;20237;-57
2022/05/11 02:03:24;;;;;;;3.30;3.10;;;;;;;;;;5119618;28;20199;-57
2022/05/11 02:08:37;;;;;;;3.50;3.30;;;;;;;;;;5118802;28;20284;-56
2022/05/11 02:11:05;;;;;;;3.40;3.20;;;;;;;;;;5119721;28;20203;-57
2022/05/11 02:13:34;;;;;;;3.40;3.20;;;;;;;;;;5118790;28;20624;-56
2022/05/11 02:16:01;;;;;;;3.15;2.95;;;;;;;;;;5118989;28;20214;-56
2022/05/11 02:18:28;;;;;;;3.50;3.30;;;;;;;;;;5119693;28;20206;-57
2022/05/11 02:20:56;;;;;;;3.25;3.05;;;;;;;;;;5119616;28;20199;-57
2022/05/11 02:23:24;;;;;;;3.13;2.92;;;;;;;;;;5118109;28;20202;-57
2022/05/11 02:25:52;;;;;;;3.08;2.88;;;;;;;;;;5118938;28;20281;-56
2022/05/11 02:28:21;;;;;;;3.22;3.03;;;;;;;;;;5118038;28;20234;-56
2022/05/11 02:30:51;;;;;;;3.40;3.20;;;;;;;;;;5118282;28;20587;-56
2022/05/11 02:33:18;;;;;;;3.10;2.90;;;;;;;;;;5118189;28;20282;-56
2022/05/11 02:35:46;;;;;;;3.25;3.05;;;;;;;;;;5119460;28;20504;-57
2022/05/11 02:38:15;;;;;;;3.42;3.22;;;;;;;;;;5118924;28;20202;-57
2022/05/11 02:40:44;;;;;;;3.20;3.00;;;;;;;;;;5119438;28;20563;-56
2022/05/11 02:43:11;;;;;;;3.40;3.20;;;;;;;;;;5118259;28;20218;-57
2022/05/11 02:45:40;;;;;;;3.50;3.30;;;;;;;;;;5118264;28;20574;-57
2022/05/11 02:48:10;;;;;;;3.28;3.08;;;;;;;;;;5118824;28;20554;-57
2022/05/11 02:50:39;;;;;;;3.13;2.92;;;;;;;;;;5118446;28;20612;-57
2022/05/11 02:53:08;;;;;;;3.30;3.10;;;;;;;;;;5118799;28;20191;-56
2022/05/11 02:55:36;;;;;;;3.25;3.05;;;;;;;;;;5118134;28;20290;-57
2022/05/11 02:58:03;;;;;;;3.58;3.38;;;;;;;;;;5118982;28;20206;-56
2022/05/11 03:00:31;;;;;;;3.40;3.20;;;;;;;;;;5117789;28;20600;-56
2022/05/11 03:02:59;;;;;;;3.30;3.10;;;;;;;;;;5117829;28;20199;-56
2022/05/11 03:05:27;;;;;;;3.55;3.35;;;;;;;;;;5118426;28;20210;-57
2022/05/11 03:07:55;;;;;;;3.22;3.03;;;;;;;;;;5117458;28;20499;-57
2022/05/11 03:10:22;;;;;;;3.00;2.80;;;;;;;;;;5117826;28;20647;-56
2022/05/11 03:12:50;;;;;;;3.38;3.17;;;;;;;;;;5117565;28;20203;-57
2022/05/11 03:15:17;;;;;;;3.40;3.10;;;;;;;;;;5118641;28;20203;-57
2022/05/11 03:17:45;;;;;;;3.10;2.90;;;;;;;;;;5117943;28;20195;-56
2022/05/11 03:20:12;;;;;;;3.10;2.90;;;;;;;;;;5117687;28;20574;-56
2022/05/11 03:22:41;;;;;;;3.35;3.15;;;;;;;;;;5117349;28;20210;-57
2022/05/11 03:25:09;;;;;;;3.40;3.20;;;;;;;;;;5118199;28;20605;-56
2022/05/11 03:27:36;;;;;;;3.20;3.00;;;;;;;;;;5118052;28;20217;-56
2022/05/11 03:30:04;;;;;;;3.22;3.03;;;;;;;;;;5117918;28;20213;-56
2022/05/11 03:35:17;;;;;;;2.90;2.70;;;;;;;;;;5117090;28;20186;-56
2022/05/11 03:37:46;;;;;;;3.20;3.00;;;;;;;;;;5117622;28;20650;-56
2022/05/11 03:40:13;;;;;;;3.28;3.08;;;;;;;;;;5117323;28;20815;-56
2022/05/11 03:42:41;;;;;;;3.50;3.25;;;;;;;;;;5116546;28;20234;-56
2022/05/11 03:45:10;;;;;;;3.15;2.95;;;;;;;;;;5117280;28;20584;-57
2022/05/11 03:47:38;;;;;;;3.53;3.33;;;;;;;;;;5117396;28;20213;-56
2022/05/11 03:50:06;;;;;;;3.50;3.30;;;;;;;;;;5117941;28;20222;-57
2022/05/11 03:52:33;;;;;;;3.22;3.03;;;;;;;;;;5116878;28;20210;-56
2022/05/11 03:55:02;;;;;;;3.50;3.30;;;;;;;;;;5116880;28;20471;-57
2022/05/11 03:57:30;;;;;;;3.00;2.85;;;;;;;;;;5116732;28;20249;-56
2022/05/11 03:59:57;;;;;;;3.35;3.15;;;;;;;;;;5116761;28;20476;-56
2022/05/11 04:02:24;;;;;;;3.38;3.17;;;;;;;;;;5116566;28;20376;-56
2022/05/11 04:04:52;;;;;;;3.13;2.92;;;;;;;;;;5116032;28;20581;-57
2022/05/11 04:07:19;;;;;;;3.30;3.10;;;;;;;;;;5116544;28;20245;-56
2022/05/11 04:09:47;;;;;;;3.38;3.08;;;;;;;;;;5116971;28;20245;-57
2022/05/11 04:12:15;;;;;;;3.10;2.90;;;;;;;;;;5116132;28;20219;-57
2022/05/11 04:14:43;;;;;;;3.25;3.05;;;;;;;;;;5116404;28;20205;-56
2022/05/11 04:17:10;;;;;;;3.03;2.92;;;;;;;;;;5116111;28;20214;-56
2022/05/11 04:19:38;;;;;;;3.10;2.90;;;;;;;;;;5116805;28;20195;-56
2022/05/11 04:22:05;;;;;;;2.95;2.85;;;;;;;;;;5116059;28;20202;-57
2022/05/11 04:24:33;;;;;;;3.03;2.83;;;;;;;;;;5114309;28;20238;-56
2022/05/11 04:27:01;;;;;;;2.97;2.80;;;;;;;;;;5116103;28;20637;-56
2022/05/11 04:29:30;;;;;;;3.03;2.83;;;;;;;;;;5115611;28;20227;-57
2022/05/11 04:31:58;;;;;;;3.30;3.10;;;;;;;;;;5114841;28;20234;-56
2022/05/11 04:34:25;;;;;;;3.35;3.15;;;;;;;;;;5115839;28;20203;-56
2022/05/11 04:36:52;;;;;;;3.30;3.08;;;;;;;;;;5116498;28;20624;-56
2022/05/11 04:39:20;;;;;;;3.38;3.17;;;;;;;;;;5114742;28;20198;-56
2022/05/11 04:41:47;;;;;;;3.30;3.10;;;;;;;;;;5115887;28;20729;-57
2022/05/11 04:44:15;;;;;;;3.08;2.88;;;;;;;;;;5113996;28;20219;-56
2022/05/11 04:46:44;;;;;;;3.13;2.92;;;;;;;;;;5115706;28;20203;-56
2022/05/11 04:49:20;;;;;;;3.30;3.10;;;;;;;;;;5115021;28;20230;-56
2022/05/11 04:51:49;;;;;;;2.92;2.72;;;;;;;;;;5115592;28;20209;-56
2022/05/11 04:54:17;;;;;;;3.22;3.03;;;;;;;;;;5114361;28;20198;-56
2022/05/11 04:56:44;;;;;;;3.17;2.97;;;;;;;;;;5118852;28;20727;-57
2022/05/11 04:59:14;;;;;;;3.33;3.13;;;;;;;;;;5118137;28;20459;-56
2022/05/11 05:01:41;;;;;;;3.20;3.00;;;;;;;;;;5118554;28;20207;-56
2022/05/11 05:04:10;;;;;;;2.67;2.58;;;;;;;;;;5117604;28;20218;-56
2022/05/11 05:06:38;;;;;;;3.50;3.30;;;;;;;;;;5117435;28;20267;-56
2022/05/11 05:09:06;;;;;;;3.42;3.22;;;;;;;;;;5115852;28;20317;-56
2022/05/11 05:11:34;;;;;;;3.20;3.00;;;;;;;;;;5117028;28;20195;-56
2022/05/11 05:14:04;;;;;;;3.28;3.08;;;;;;;;;;5115799;28;20199;-56
2022/05/11 05:16:32;;;;;;;3.17;2.97;;;;;;;;;;5116712;28;20574;-56
2022/05/11 05:18:59;;;;;;;3.10;2.90;;;;;;;;;;5116191;28;20206;-57
2022/05/11 05:21:28;;;;;;;2.78;2.67;;;;;;;;;;5116825;28;20192;-57
2022/05/11 05:23:55;;;;;;;3.20;3.00;;;;;;;;;;5116144;28;20205;-56
2022/05/11 05:26:22;;;;;;;3.20;3.00;;;;;;;;;;5116490;28;20214;-56
2022/05/11 05:31:34;;;;;;;3.17;2.97;;;;;;;;;;5116316;28;20194;-57
2022/05/11 05:34:02;;;;;;;2.80;2.70;;;;;;;;;;5116257;28;20195;-56
2022/05/11 05:36:32;;;;;;;3.17;2.97;;;;;;;;;;5115926;28;20355;-57
2022/05/11 05:38:59;;;;;;;3.30;3.10;;;;;;;;;;5116455;28;20194;-57
2022/05/11 05:41:28;;;;;;;3.05;2.85;;;;;;;;;;5115751;28;20195;-56
2022/05/11 05:43:55;;;;;;;3.15;2.95;;;;;;;;;;5115202;28;20243;-56
2022/05/11 05:46:24;;;;;;;3.10;2.90;;;;;;;;;;5115131;28;20639;-56
2022/05/11 05:48:51;;;;;;;3.20;3.00;;;;;;;;;;5115132;28;20227;-56
2022/05/11 05:51:19;;;;;;;3.00;2.80;;;;;;;;;;5115914;28;20206;-56
2022/05/11 05:53:48;;;;;;;3.20;3.00;;;;;;;;;;5116454;28;20206;-57
2022/05/11 05:56:16;;;;;;;3.25;3.05;;;;;;;;;;5116082;28;20206;-56
2022/05/11 05:58:45;;;;;;;2.78;2.67;;;;;;;;;;5116760;28;20202;-56
2022/05/11 06:01:13;;;;;;;3.13;2.92;;;;;;;;;;5115277;28;20601;-56
2022/05/11 06:03:41;;;;;;;3.00;2.80;;;;;;;;;;5114373;28;20286;-57
2022/05/11 06:06:09;;;;;;;3.10;2.90;;;;;;;;;;5115037;28;20194;-57
2022/05/11 06:08:37;;;;;;;3.25;3.05;;;;;;;;;;5115538;28;20650;-56
2022/05/11 06:11:07;;;;;;;2.92;2.83;;;;;;;;;;5115518;28;20198;-57
2022/05/11 06:13:34;;;;;;;3.03;2.83;;;;;;;;;;5115568;28;20191;-57
2022/05/11 06:16:02;;;;;;;3.38;3.17;;;;;;;;;;5116030;28;20206;-57
2022/05/11 06:18:30;;;;;;;3.10;2.90;;;;;;;;;;5115675;28;20238;-57
2022/05/11 06:20:57;;;;;;;3.00;2.80;;;;;;;;;;5117114;28;20203;-57
2022/05/11 06:23:25;;;;;;;3.25;3.05;;;;;;;;;;5115349;28;20195;-64
2022/05/11 06:25:52;;;;;;;2.83;2.72;;;;;;;;;;5114424;28;20187;-57
2022/05/11 06:28:21;;;;;;;2.90;2.80;;;;;;;;;;5116072;28;20594;-57
2022/05/11 06:30:49;;;;;;;2.92;2.72;;;;;;;;;;5117138;28;20226;-57
2022/05/11 06:33:16;;;;;;;3.45;3.17;;;;;;;;;;5116270;28;20195;-57
2022/05/11 06:35:43;;;;;;;3.47;3.17;;;;;;;;;;5116808;28;20205;-57
2022/05/11 06:38:11;;;;;;;3.47;3.28;;;;;;;;;;5114597;28;20213;-57
2022/05/11 06:40:39;;;;;;;3.20;3.00;;;;;;;;;;5116544;28;20205;-57
2022/05/11 06:43:07;;;;;;;3.13;2.92;;;;;;;;;;5115697;28;20851;-57
2022/05/11 06:45:36;;;;;;;3.20;3.00;;;;;;;;;;5115882;28;20229;-57
2022/05/11 06:48:03;;;;;;;3.15;2.95;;;;;;;;;;5114252;28;20502;-57
2022/05/11 06:50:31;;;;;;;3.63;3.42;;;;;;;;;;5116295;28;20219;-57
2022/05/11 06:52:58;;;;;;;3.83;3.63;;;;;;;;;;5114692;28;20227;-57
2022/05/11 07:00:58;;;;;;;3.28;3.05;;;;;;;;;;5114785;28;20975;-57
2022/05/11 07:03:25;;;;;;;3.75;3.45;;;;;;;;;;5115154;28;20613;-56
2022/05/11 07:05:53;;;;;;;3.50;3.00;;;;;;;;;;5115758;28;20238;-56
2022/05/11 07:08:20;;;;;;;3.60;3.25;;;;;;;;;;5115575;28;20203;-56
2022/05/11 07:12:17;;;;;;;3.50;3.30;;;;;;;;;;5115946;28;20226;-56
2022/05/11 07:13:35;;;;;;;3.85;3.45;;;;;;;;;;5115489;28;20195;-56
2022/05/11 07:16:05;;;;;;;3.67;3.38;;;;;;;;;;5114022;28;20198;-57
2022/05/11 07:18:32;;;;;;;3.33;3.08;;;;;;;;;;5113883;28;20208;-57
2022/05/11 07:21:00;;;;;;;3.67;3.47;;;;;;;;;;5106010;28;20206;-57
2022/05/11 07:23:28;;;;;;;3.55;3.25;;;;;;;;;;5114815;28;20241;-57
2022/05/11 07:25:55;;;;;;;3.75;3.45;;;;;;;;;;5115678;28;20542;-57
2022/05/11 07:28:23;;;;;;;3.75;3.40;;;;;;;;;;5115697;28;20194;-56
2022/05/11 07:30:50;;;;;;;8.73;3.80;;;;;;;;;;5113830;28;20211;-56
2022/05/11 07:33:19;;;;;;;4.20;3.80;;;;;;;;;;5114781;28;20294;-56
2022/05/11 07:35:47;;;;;;;6.57;4.05;;;;;;;;;;5113666;28;20198;-56
2022/05/11 07:38:15;;;;;;;4.88;4.10;;;;;;;;;;5114462;28;20191;-55
2022/05/11 07:40:43;;;;;;;6.40;4.45;;;;;;;;;;5114708;28;20199;-56
2022/05/11 07:43:11;;;;;;;5.40;4.95;;;;;;;;;;5113938;28;20218;-65
2022/05/11 07:45:39;;;;;;;5.30;4.80;;;;;;;;;;5114277;28;20301;-56
2022/05/11 07:48:07;;;;;;;4.75;4.35;;;;;;;;;;5114182;28;20210;-56
2022/05/11 07:50:35;;;;;;;9.70;5.00;;;;;;;;;;5114477;28;20218;-56
2022/05/11 07:53:04;;;;;;;5.90;5.40;;;;;;;;;;5114355;28;20206;-56
2022/05/11 07:55:33;;;;;;;6.25;5.70;;;;;;;;;;5113639;28;20199;-56
2022/05/11 08:00:46;;;;;;;6.15;5.65;;;;;;;;;;5114065;28;20240;-56
2022/05/11 08:03:13;;;;;;;5.72;5.32;;;;;;;;;;5114325;28;20190;-56
2022/05/11 08:05:42;;;;;;;6.47;5.90;;;;;;;;;;5114985;28;20194;-56
2022/05/11 08:08:10;;;;;;;6.53;5.93;;;;;;;;;;5114402;28;20203;-56
2022/05/11 08:10:39;;;;;;;6.40;5.85;;;;;;;;;;5113943;28;20226;-55
2022/05/11 08:13:07;;;;;;;6.18;5.57;;;;;;;;;;5113868;28;20285;-56
2022/05/11 08:15:36;;;;;;;6.13;5.63;;;;;;;;;;5114466;28;20209;-56
2022/05/11 08:18:05;;;;;;;5.50;5.20;;;;;;;;;;5114085;28;20195;-56
2022/05/11 08:20:34;;;;;;;5.90;5.50;;;;;;;;;;5114379;28;20195;-56
2022/05/11 08:23:04;;;;;;;6.20;5.70;;;;;;;;;;5114584;28;20203;-56
2022/05/11 08:25:32;;;;;;;5.85;5.45;;;;;;;;;;5114375;28;20280;-56
2022/05/11 08:28:00;;;;;;;5.65;5.25;;;;;;;;;;5114714;28;20211;-56
2022/05/11 08:33:27;;;;;;;5.82;5.43;;;;;;;;;;5116946;28;20629;-56
2022/05/11 08:35:56;;;;;;;6.35;5.85;;;;;;;;;;5118294;28;20517;-56
2022/05/11 08:38:26;;;;;;;6.00;5.50;;;;;;;;;;5117933;28;20271;-56
2022/05/11 08:40:57;;;;;;;5.82;5.43;;;;;;;;;;5118523;28;20195;-56
2022/05/11 08:43:25;;;;;;;5.70;5.20;;;;;;;;;;5116659;28;20517;-55
2022/05/11 08:45:57;;;;;;;6.05;5.60;;;;;;;;;;5115536;28;20317;-56
2022/05/11 08:48:30;;;;;;;6.35;5.78;;;;;;;;;;5117351;28;20607;-56
2022/05/11 08:50:57;;;;;;;5.72;5.07;;;;;;;;;;5117656;28;20221;-56
2022/05/11 08:53:34;;;;;;;5.55;5.15;;;;;;;;;;5116569;28;20191;-56
2022/05/11 08:56:06;;;;;;;5.85;5.35;;;;;;;;;;5117261;28;20297;-56
2022/05/11 08:58:37;;;;;;;6.03;5.53;;;;;;;;;;5116377;28;20207;-56
2022/05/11 09:01:07;;;;;;;5.47;4.95;;;;;;;;;;5116944;28;20624;-56
2022/05/11 09:03:36;;;;;;;6.20;5.10;;;;;;;;;;5116160;28;20732;-55
2022/05/11 09:06:05;;;;;;;5.25;4.75;;;;;;;;;;5117363;28;20211;-56
2022/05/11 09:08:37;;;;;;;5.43;5.03;;;;;;;;;;5118045;28;20203;-56
2022/05/11 09:11:05;;;;;;;5.65;5.10;;;;;;;;;;5116724;28;20628;-55
2022/05/11 09:13:33;;;;;;;5.40;5.00;;;;;;;;;;5117959;28;20207;-56
2022/05/11 09:16:02;;;;;;;5.18;4.70;;;;;;;;;;5116950;28;20199;-56
2022/05/11 09:18:39;;;;;;;5.28;4.95;;;;;;;;;;5116932;28;20203;-55
2022/05/11 09:21:19;;;;;;;4.70;4.40;;;;;;;;;;5117197;28;20263;-56
2022/05/11 09:23:53;;;;;;;5.20;4.80;;;;;;;;;;5116348;28;20231;-56
2022/05/11 09:26:34;;;;;;;5.22;4.90;;;;;;;;;;5116143;28;20296;-55
2022/05/11 09:29:19;;;;;;;4.55;4.25;;;;;;;;;;5116816;28;20206;-56
2022/05/11 09:31:47;;;;;;;5.25;4.82;;;;;;;;;;5116579;28;20640;-55
2022/05/11 09:34:15;;;;;;;5.15;4.75;;;;;;;;;;5116001;28;20298;-55
2022/05/11 09:36:44;;;;;;;4.90;4.50;;;;;;;;;;5116750;28;20260;-56
2022/05/11 09:39:14;;;;;;;5.22;4.93;;;;;;;;;;5115429;28;20195;-56
2022/05/11 09:41:43;;;;;;;8.13;4.70;;;;;;;;;;5115558;28;20198;-56
2022/05/11 09:44:20;;;;;;;5.03;4.65;;;;;;;;;;5115645;28;20653;-56
2022/05/11 09:46:48;;;;;;;5.75;5.13;;;;;;;;;;5116463;28;20195;-56
2022/05/11 09:49:26;;;;;;;5.38;4.97;;;;;;;;;;5115747;28;20202;-56
2022/05/11 09:51:55;;;;;;;5.40;4.90;;;;;;;;;;5117055;28;20226;-56
2022/05/11 09:54:33;;;;;;;4.93;4.53;;;;;;;;;;5116551;28;20207;-56
2022/05/11 09:57:03;;;;;;;5.15;4.78;;;;;;;;;;5116660;28;20292;-56
2022/05/11 09:59:32;;;;;;;5.10;4.75;;;;;;;;;;5116000;28;20288;-56
2022/05/11 10:02:03;;;;;;;5.32;4.93;;;;;;;;;;5115981;28;20210;-56
2022/05/11 10:04:31;;;;;;;4.85;4.55;;;;;;;;;;5115176;28;20195;-56
2022/05/11 10:06:59;;;;;;;5.60;5.20;;;;;;;;;;5117052;28;20210;-56
2022/05/11 10:09:31;;;;;;;5.10;4.80;;;;;;;;;;5116514;28;20214;-56
2022/05/11 10:12:00;;;;;;;4.85;4.55;;;;;;;;;;5115366;28;20233;-56
2022/05/11 10:22:47;;;;;;;5.15;4.75;;;;;;;;;;5113507;28;20206;-56
2022/05/11 10:25:18;;;;;;;5.28;4.88;;;;;;;;;;5116082;28;20237;-56
2022/05/11 10:27:47;;;;;;;5.10;4.70;;;;;;;;;;5114938;28;20195;-57
2022/05/11 10:30:22;;;;;;;5.47;5.07;;;;;;;;;;5115021;28;20233;-56
2022/05/11 10:33:20;;;;;;;4.70;4.40;;;;;;;;;;5114322;28;20605;-56
2022/05/11 10:35:57;;;;;;;4.22;3.92;;;;;;;;;;5113342;28;20195;-56
2022/05/11 10:38:32;;;;;;;4.93;4.53;;;;;;;;;;5115010;28;20206;-56
2022/05/11 10:41:04;;;;;;;5.07;4.68;;;;;;;;;;5114664;28;20187;-56
2022/05/11 10:43:41;;;;;;;4.82;4.50;;;;;;;;;;5114061;28;20253;-56
2022/05/11 10:46:12;;;;;;;4.70;4.30;;;;;;;;;;5114431;28;20490;-56
2022/05/11 10:48:49;;;;;;;4.38;4.07;;;;;;;;;;5115109;28;20194;-56
2022/05/11 10:51:18;;;;;;;4.40;4.00;;;;;;;;;;5114107;28;20219;-56
2022/05/11 10:53:51;;;;;;;4.40;4.10;;;;;;;;;;5114049;28;20214;-56
2022/05/11 10:56:33;;;;;;;4.93;4.53;;;;;;;;;;5115339;28;20211;-56
2022/05/11 10:59:09;;;;;;;4.38;4.07;;;;;;;;;;5115539;28;20214;-56
2022/05/11 11:01:45;;;;;;;4.65;4.35;;;;;;;;;;5112923;28;20191;-56
2022/05/11 11:04:23;;;;;;;5.20;4.30;;;;;;;;;;5115263;28;20208;-56
2022/05/11 11:07:14;;;;;;;4.50;4.07;;;;;;;;;;5114513;28;20198;-56
2022/05/11 11:09:49;;;;;;;3.97;3.63;;;;;;;;;;5114656;28;20620;-56
2022/05/11 11:12:24;;;;;;;4.30;4.00;;;;;;;;;;5114008;28;20222;-56
2022/05/11 11:14:52;;;;;;;4.32;4.03;;;;;;;;;;5115065;28;20199;-56
2022/05/11 11:17:21;;;;;;;4.28;3.97;;;;;;;;;;5114845;28;20207;-56
2022/05/11 11:19:54;;;;;;;4.15;3.90;;;;;;;;;;5114440;28;20202;-56
2022/05/11 11:22:22;;;;;;;4.53;4.13;;;;;;;;;;5113548;28;20229;-56
2022/05/11 11:25:04;;;;;;;3.97;3.70;;;;;;;;;;5113074;28;20202;-56
2022/05/11 11:27:46;;;;;;;4.22;3.92;;;;;;;;;;5114104;28;20230;-56
2022/05/11 11:30:22;;;;;;;4.45;4.15;;;;;;;;;;5112351;28;20203;-56
2022/05/11 11:33:05;;;;;;;4.30;4.00;;;;;;;;;;5093312;28;20195;-56
2022/05/11 11:35:36;;;;;;;4.60;4.20;;;;;;;;;;5093416;28;20297;-56
2022/05/11 11:38:05;;;;;;;4.40;4.10;;;;;;;;;;5093347;28;20272;-56
2022/05/11 11:40:34;;;;;;;4.60;4.20;;;;;;;;;;5095508;28;20196;-56
2022/05/11 11:43:38;;;;;;;4.22;3.92;;;;;;;;;;5112934;28;20247;-56
2022/05/11 11:46:04;;;;;;;4.80;4.43;;;;;;;;;;5113395;28;20268;-56
2022/05/11 11:48:32;;;;;;;4.32;3.97;;;;;;;;;;5113040;28;20263;-56
2022/05/11 11:51:00;;;;;;;4.85;4.45;;;;;;;;;;5112878;28;20280;-56
2022/05/11 11:53:32;;;;;;;4.75;4.45;;;;;;;;;;5113721;28;20222;-56
2022/05/11 11:56:14;;;;;;;4.30;3.90;;;;;;;;;;5113238;28;20203;-56
2022/05/11 11:58:41;;;;;;;4.50;4.10;;;;;;;;;;5112814;28;20597;-56
2022/05/11 12:01:12;;;;;;;4.57;4.18;;;;;;;;;;5112706;28;20183;-56
2022/05/11 12:03:42;;;;;;;4.55;4.25;;;;;;;;;;5113816;27;20203;-56
2022/05/11 12:17:26;;;;;;;4.05;3.75;;;;;;;;;;5116584;28;20233;-56
2022/05/11 12:19:58;;;;;;;7.47;4.35;;;;;;;;;;5117838;28;20202;-56
2022/05/11 12:22:25;;;;;;;4.50;4.20;;;;;;;;;;5116139;28;20197;-56
2022/05/11 12:24:58;;;;;;;4.55;4.25;;;;;;;;;;5117153;28;20210;-56
2022/05/11 12:27:28;;;;;;;4.28;3.97;;;;;;;;;;5116918;28;20303;-56
2022/05/11 12:29:58;;;;;;;4.80;4.50;;;;;;;;;;5116774;28;20774;-56
2022/05/11 12:32:27;;;;;;;3.95;3.70;;;;;;;;;;5117317;28;20233;-56
2022/05/11 12:34:55;;;;;;;4.50;4.10;;;;;;;;;;5117081;28;20343;-56
2022/05/11 12:37:24;;;;;;;4.40;4.00;;;;;;;;;;5116546;28;20290;-56
2022/05/11 12:39:56;;;;;;;3.88;3.67;;;;;;;;;;5116528;28;20600;-56
2022/05/11 12:42:30;;;;;;;4.45;4.13;;;;;;;;;;5117147;28;20235;-56
2022/05/11 12:44:58;;;;;;;4.45;4.15;;;;;;;;;;5117551;28;20206;-56
2022/05/11 12:47:27;;;;;;;3.92;3.63;;;;;;;;;;5117428;28;20206;-56
2022/05/11 12:49:55;;;;;;;4.45;4.05;;;;;;;;;;5116923;28;20199;-56
2022/05/11 12:52:25;;;;;;;4.25;3.95;;;;;;;;;;5116006;28;20222;-56
2022/05/11 12:54:57;;;;;;;5.55;3.88;;;;;;;;;;5117476;28;20503;-56
2022/05/11 12:57:25;;;;;;;4.05;3.75;;;;;;;;;;5116906;28;20222;-56
2022/05/11 12:59:53;;;;;;;4.32;3.97;;;;;;;;;;5117265;28;20198;-56
2022/05/11 13:02:23;;;;;;;4.32;3.83;;;;;;;;;;5114503;28;20206;-56
2022/05/11 13:04:53;;;;;;;3.92;3.35;;;;;;;;;;5115988;28;20203;-56
2022/05/11 13:07:23;;;;;;;4.10;3.67;;;;;;;;;;5116716;28;20214;-56
2022/05/11 13:09:52;;;;;;;4.18;3.80;;;;;;;;;;5116217;28;20199;-56
2022/05/11 13:12:19;;;;;;;4.47;4.00;;;;;;;;;;5116271;28;20265;-56
2022/05/11 13:14:48;;;;;;;4.20;3.90;;;;;;;;;;5115704;28;20481;-56
2022/05/11 13:17:20;;;;;;;4.70;3.70;;;;;;;;;;5115201;28;20214;-56
2022/05/11 13:19:55;;;;;;;3.70;3.50;;;;;;;;;;5116278;28;20209;-56
2022/05/11 13:22:24;;;;;;;3.85;3.55;;;;;;;;;;5116170;28;20216;-56
2022/05/11 13:24:54;;;;;;;4.38;4.00;;;;;;;;;;5116471;28;20283;-56
2022/05/11 13:27:35;;;;;;;4.10;3.65;;;;;;;;;;5116387;28;20209;-55
2022/05/11 13:30:11;;;;;;;3.83;3.50;;;;;;;;;;5115992;28;20264;-56
2022/05/11 13:32:40;;;;;;;3.80;3.47;;;;;;;;;;5114879;28;20219;-56
2022/05/11 13:35:22;;;;;;;3.75;3.45;;;;;;;;;;5116590;28;20209;-56
2022/05/11 13:37:58;;;;;;;3.83;3.53;;;;;;;;;;5116785;28;20263;-56
2022/05/11 13:40:32;;;;;;;4.03;3.63;;;;;;;;;;5115530;28;20216;-56
2022/05/11 13:43:00;;;;;;;3.60;3.30;;;;;;;;;;5115210;28;20222;-56
2022/05/11 13:45:28;;;;;;;4.07;3.78;;;;;;;;;;5116235;28;20218;-56
2022/05/11 13:48:13;;;;;;;3.90;3.60;;;;;;;;;;5116328;28;20198;-56
2022/05/11 13:50:44;;;;;;;4.47;3.90;;;;;;;;;;5114403;28;20206;-56
2022/05/11 13:53:21;;;;;;;3.60;3.30;;;;;;;;;;5116449;28;20207;-56
2022/05/11 13:56:01;;;;;;;4.03;3.67;;;;;;;;;;5116158;28;20203;-56
2022/05/11 13:58:32;;;;;;;4.10;3.80;;;;;;;;;;5115530;28;20203;-56
2022/05/11 14:01:00;;;;;;;3.67;3.38;;;;;;;;;;5115126;28;20210;-56
2022/05/11 14:03:31;;;;;;;3.60;3.30;;;;;;;;;;5116273;28;20215;-56
2022/05/11 14:06:01;;;;;;;3.60;3.38;;;;;;;;;;5115200;28;20305;-58
2022/05/11 14:08:28;;;;;;;3.83;2.90;;;;;;;;;;5114153;28;20220;-57
2022/05/11 14:10:56;;;;;;;3.65;3.40;;;;;;;;;;5114604;28;20238;-56
2022/05/11 14:13:23;;;;;;;4.28;3.60;;;;;;;;;;5114488;28;20207;-56
2022/05/11 14:15:57;;;;;;;4.00;3.30;;;;;;;;;;5113792;28;20213;-56
2022/05/11 14:18:29;;;;;;;3.67;3.38;;;;;;;;;;5114313;28;20302;-55
2022/05/11 14:20:56;;;;;;;3.72;3.42;;;;;;;;;;5113954;28;20226;-56
2022/05/11 14:23:25;;;;;;;3.70;3.40;;;;;;;;;;5115150;28;20210;-56
2022/05/11 14:25:53;;;;;;;3.38;3.08;;;;;;;;;;5114534;28;20199;-56
2022/05/11 14:28:20;;;;;;;3.70;3.40;;;;;;;;;;5114822;28;20594;-56
2022/05/11 14:30:48;;;;;;;3.83;3.53;;;;;;;;;;5114671;28;20284;-56
2022/05/11 14:33:16;;;;;;;3.60;3.30;;;;;;;;;;5114447;28;20233;-56
2022/05/11 14:35:43;;;;;;;4.07;3.50;;;;;;;;;;5114382;28;20198;-56
2022/05/11 14:38:11;;;;;;;3.47;3.03;;;;;;;;;;5105965;28;20218;-55
2022/05/11 14:40:40;;;;;;;4.20;3.90;;;;;;;;;;5114381;28;20202;-56
2022/05/11 14:43:07;;;;;;;3.70;3.40;;;;;;;;;;5112882;28;20305;-56
2022/05/11 14:45:36;;;;;;;4.22;3.42;;;;;;;;;;5114831;28;20210;-56
2022/05/11 14:48:05;;;;;;;3.90;3.05;;;;;;;;;;5114097;28;20210;-56
2022/05/11 14:50:33;;;;;;;3.80;3.50;;;;;;;;;;5113354;28;20202;-56
2022/05/11 14:53:01;;;;;;;3.63;3.33;;;;;;;;;;5114686;28;20253;-56
2022/05/11 14:55:29;;;;;;;3.80;3.50;;;;;;;;;;5114880;28;20199;-56
2022/05/11 15:03:29;;;;;;;3.45;3.15;;;;;;;;;;5114089;28;20238;-55
2022/05/11 15:05:58;;;;;;;3.25;3.05;;;;;;;;;;5114090;28;20207;-56
2022/05/11 15:08:25;;;;;;;3.75;3.40;;;;;;;;;;5114072;28;20202;-56
2022/05/11 15:13:30;;;;;;;3.97;3.60;;;;;;;;;;5113386;28;20263;-56
2022/05/11 15:13:41;;;;;;;3.67;3.47;;;;;;;;;;5113687;28;20691;-56
2022/05/11 15:16:09;;;;;;;3.53;3.15;;;;;;;;;;5113887;28;20199;-56
2022/05/11 15:18:36;;;;;;;4.43;3.70;;;;;;;;;;5114207;28;20517;-56
2022/05/11 15:21:04;;;;;;;3.58;3.28;;;;;;;;;;5115660;28;20206;-56
2022/05/11 15:23:32;;;;;;;3.65;3.35;;;;;;;;;;5115847;28;20264;-56
2022/05/11 15:25:59;;;;;;;3.42;3.22;;;;;;;;;;5115098;28;20195;-56
2022/05/11 15:28:27;;;;;;;3.97;3.60;;;;;;;;;;5114368;28;20298;-56
2022/05/11 15:30:56;;;;;;;4.90;3.63;;;;;;;;;;5113665;28;20198;-56
2022/05/11 15:33:24;;;;;;;4.30;3.90;;;;;;;;;;5114751;28;20258;-56
2022/05/11 15:35:55;;;;;;;3.80;3.50;;;;;;;;;;5113733;28;20210;-56
2022/05/11 15:38:22;;;;;;;3.33;3.13;;;;;;;;;;5114304;28;20250;-56
2022/05/11 15:40:49;;;;;;;3.80;3.50;;;;;;;;;;5113449;28;20191;-56
2022/05/11 15:43:17;;;;;;;4.18;3.78;;;;;;;;;;5114565;28;20234;-56
2022/05/11 15:45:45;;;;;;;3.70;3.40;;;;;;;;;;5114655;28;20206;-56